sensor_id;sensor_type;location;lat;lon;timestamp;pressure;altitude;pressure_sealevel;temperature;humidity
55990;BME280;41875;55.806;38.082;2023-02-23T00:00:40;99137.41;;;-13.60;60.17
55990;BME280;41875;55.806;38.082;2023-02-23T00:03:10;99153.50;;;-13.54;60.17
55990;BME280;41875;55.806;38.082;2023-02-23T00:05:40;99155.28;;;-13.62;60.27
55990;BME280;41875;55.806;38.082;2023-02-23T00:08:09;99152.91;;;-13.79;61.12
55990;BME280;41875;55.806;38.082;2023-02-23T00:10:38;99154.47;;;-13.66;60.49
55990;BME280;41875;55.806;38.082;2023-02-23T00:13:06;99153.59;;;-13.66;60.44
55990;BME280;41875;55.806;38.082;2023-02-23T00:15:37;99140.13;;;-13.74;60.66
55990;BME280;41875;55.806;38.082;2023-02-23T00:18:07;99170.63;;;-13.70;60.53
55990;BME280;41875;55.806;38.082;2023-02-23T00:20:36;99157.06;;;-13.72;60.89
55990;BME280;41875;55.806;38.082;2023-02-23T00:23:10;99170.53;;;-13.60;60.49
55990;BME280;41875;55.806;38.082;2023-02-23T00:25:39;99169.59;;;-13.52;60.37
55990;BME280;41875;55.806;38.082;2023-02-23T00:28:11;99162.13;;;-13.69;60.64
55990;BME280;41875;55.806;38.082;2023-02-23T00:30:40;99172.25;;;-13.61;60.64
55990;BME280;41875;55.806;38.082;2023-02-23T00:33:10;99159.47;;;-13.59;60.75
55990;BME280;41875;55.806;38.082;2023-02-23T00:35:39;99179.28;;;-13.85;60.74
55990;BME280;41875;55.806;38.082;2023-02-23T00:38:08;99159.69;;;-13.80;60.98
55990;BME280;41875;55.806;38.082;2023-02-23T00:40:38;99163.88;;;-13.72;61.29
55990;BME280;41875;55.806;38.082;2023-02-23T00:43:08;99172.44;;;-13.78;60.91
55990;BME280;41875;55.806;38.082;2023-02-23T00:45:36;99168.22;;;-13.82;61.31
55990;BME280;41875;55.806;38.082;2023-02-23T00:48:07;99177.53;;;-13.81;60.91
55990;BME280;41875;55.806;38.082;2023-02-23T00:50:39;99180.09;;;-13.81;60.90
55990;BME280;41875;55.806;38.082;2023-02-23T00:53:08;99163.88;;;-13.74;60.29
55990;BME280;41875;55.806;38.082;2023-02-23T00:55:39;99167.34;;;-13.78;60.53
55990;BME280;41875;55.806;38.082;2023-02-23T00:58:08;99167.41;;;-13.87;61.46
55990;BME280;41875;55.806;38.082;2023-02-23T01:00:41;99187.66;;;-13.73;61.21
55990;BME280;41875;55.806;38.082;2023-02-23T01:03:09;99165.56;;;-13.73;60.33
55990;BME280;41875;55.806;38.082;2023-02-23T01:05:39;99160.44;;;-13.70;60.53
55990;BME280;41875;55.806;38.082;2023-02-23T01:08:08;99166.34;;;-13.65;60.48
55990;BME280;41875;55.806;38.082;2023-02-23T01:10:39;99192.88;;;-13.86;61.53
55990;BME280;41875;55.806;38.082;2023-02-23T01:13:11;99163.19;;;-13.87;60.87
55990;BME280;41875;55.806;38.082;2023-02-23T01:15:40;99185.31;;;-13.95;60.92
55990;BME280;41875;55.806;38.082;2023-02-23T01:18:09;99190.63;;;-14.23;61.50
55990;BME280;41875;55.806;38.082;2023-02-23T01:20:40;99195.63;;;-14.11;61.82
55990;BME280;41875;55.806;38.082;2023-02-23T01:23:10;99196.38;;;-13.98;61.70
55990;BME280;41875;55.806;38.082;2023-02-23T01:25:40;99206.38;;;-13.77;61.34
55990;BME280;41875;55.806;38.082;2023-02-23T01:28:10;99215.84;;;-13.92;61.36
55990;BME280;41875;55.806;38.082;2023-02-23T01:30:39;99204.88;;;-14.00;61.44
55990;BME280;41875;55.806;38.082;2023-02-23T01:33:08;99208.06;;;-13.78;60.73
55990;BME280;41875;55.806;38.082;2023-02-23T01:35:36;99204.53;;;-13.66;60.77
55990;BME280;41875;55.806;38.082;2023-02-23T01:38:06;99208.16;;;-13.87;60.87
55990;BME280;41875;55.806;38.082;2023-02-23T01:40:35;99208.09;;;-13.83;61.18
55990;BME280;41875;55.806;38.082;2023-02-23T01:43:16;99209.53;;;-13.54;60.41
55990;BME280;41875;55.806;38.082;2023-02-23T01:45:47;99207.16;;;-13.72;60.78
55990;BME280;41875;55.806;38.082;2023-02-23T01:48:18;99210.47;;;-13.64;60.55
55990;BME280;41875;55.806;38.082;2023-02-23T01:50:53;99208.78;;;-13.64;60.62
55990;BME280;41875;55.806;38.082;2023-02-23T01:53:25;99213.88;;;-13.64;60.28
55990;BME280;41875;55.806;38.082;2023-02-23T01:55:56;99212.25;;;-13.69;60.34
55990;BME280;41875;55.806;38.082;2023-02-23T01:58:27;99217.53;;;-13.94;61.30
55990;BME280;41875;55.806;38.082;2023-02-23T02:00:58;99218.13;;;-13.64;60.00
55990;BME280;41875;55.806;38.082;2023-02-23T02:03:32;99226.78;;;-13.84;61.01
55990;BME280;41875;55.806;38.082;2023-02-23T02:06:04;99224.16;;;-13.76;60.45
55990;BME280;41875;55.806;38.082;2023-02-23T02:08:38;99219.19;;;-13.88;60.94
55990;BME280;41875;55.806;38.082;2023-02-23T02:11:11;99231.97;;;-13.96;61.29
55990;BME280;41875;55.806;38.082;2023-02-23T02:13:53;99232.88;;;-14.00;61.17
55990;BME280;41875;55.806;38.082;2023-02-23T02:16:55;99226.72;;;-13.74;60.54
55990;BME280;41875;55.806;38.082;2023-02-23T02:22:50;99231.19;;;-14.03;61.06
55990;BME280;41875;55.806;38.082;2023-02-23T02:25:42;99222.78;;;-14.13;61.38
55990;BME280;41875;55.806;38.082;2023-02-23T02:31:54;99237.13;;;-14.04;61.59
55990;BME280;41875;55.806;38.082;2023-02-23T02:34:48;99245.66;;;-14.10;61.55
55990;BME280;41875;55.806;38.082;2023-02-23T02:37:30;99258.41;;;-14.11;61.25
55990;BME280;41875;55.806;38.082;2023-02-23T02:40:08;99250.06;;;-14.30;62.31
55990;BME280;41875;55.806;38.082;2023-02-23T02:42:51;99242.19;;;-13.98;60.94
55990;BME280;41875;55.806;38.082;2023-02-23T02:45:28;99248.19;;;-14.06;61.43
55990;BME280;41875;55.806;38.082;2023-02-23T02:48:05;99244.94;;;-14.22;62.16
55990;BME280;41875;55.806;38.082;2023-02-23T02:50:42;99254.16;;;-14.14;61.83
55990;BME280;41875;55.806;38.082;2023-02-23T02:53:17;99252.56;;;-14.27;61.51
55990;BME280;41875;55.806;38.082;2023-02-23T02:55:48;99243.06;;;-14.02;60.77
55990;BME280;41875;55.806;38.082;2023-02-23T02:58:18;99233.84;;;-14.15;61.04
55990;BME280;41875;55.806;38.082;2023-02-23T03:00:47;99249.38;;;-14.56;62.27
55990;BME280;41875;55.806;38.082;2023-02-23T03:03:37;99261.19;;;-14.48;62.29
55990;BME280;41875;55.806;38.082;2023-02-23T03:06:35;99244.72;;;-13.96;61.22
55990;BME280;41875;55.806;38.082;2023-02-23T03:09:33;99258.47;;;-14.20;61.30
55990;BME280;41875;55.806;38.082;2023-02-23T03:12:28;99252.66;;;-14.36;62.16
55990;BME280;41875;55.806;38.082;2023-02-23T03:15:31;99255.13;;;-14.29;61.43
55990;BME280;41875;55.806;38.082;2023-02-23T03:18:38;99251.81;;;-14.37;61.73
55990;BME280;41875;55.806;38.082;2023-02-23T03:21:30;99251.84;;;-14.43;62.07
55990;BME280;41875;55.806;38.082;2023-02-23T03:24:24;99251.03;;;-14.50;62.21
55990;BME280;41875;55.806;38.082;2023-02-23T03:27:22;99258.69;;;-14.54;62.28
55990;BME280;41875;55.806;38.082;2023-02-23T03:30:15;99260.44;;;-14.64;62.27
55990;BME280;41875;55.806;38.082;2023-02-23T03:33:10;99265.56;;;-14.67;62.51
55990;BME280;41875;55.806;38.082;2023-02-23T03:36:02;99259.47;;;-14.43;61.90
55990;BME280;41875;55.806;38.082;2023-02-23T03:38:54;99259.38;;;-14.31;61.72
55990;BME280;41875;55.806;38.082;2023-02-23T03:41:45;99252.78;;;-14.63;62.18
55990;BME280;41875;55.806;38.082;2023-02-23T03:44:38;99273.22;;;-14.74;63.05
55990;BME280;41875;55.806;38.082;2023-02-23T03:47:28;99288.41;;;-14.66;62.83
55990;BME280;41875;55.806;38.082;2023-02-23T03:50:20;99269.69;;;-14.51;61.96
55990;BME280;41875;55.806;38.082;2023-02-23T03:53:08;99275.81;;;-14.80;62.43
55990;BME280;41875;55.806;38.082;2023-02-23T03:55:59;99288.47;;;-14.71;61.93
55990;BME280;41875;55.806;38.082;2023-02-23T03:58:50;99290.19;;;-14.76;61.92
55990;BME280;41875;55.806;38.082;2023-02-23T04:01:41;99285.13;;;-14.82;62.69
55990;BME280;41875;55.806;38.082;2023-02-23T04:04:28;99279.19;;;-14.78;62.24
55990;BME280;41875;55.806;38.082;2023-02-23T04:07:15;99301.16;;;-14.67;62.09
55990;BME280;41875;55.806;38.082;2023-02-23T04:10:01;99283.38;;;-14.74;61.49
55990;BME280;41875;55.806;38.082;2023-02-23T04:12:52;99278.19;;;-14.57;61.72
55990;BME280;41875;55.806;38.082;2023-02-23T04:15:44;99307.09;;;-14.67;62.27
55990;BME280;41875;55.806;38.082;2023-02-23T04:18:17;99294.41;;;-14.73;62.09
55990;BME280;41875;55.806;38.082;2023-02-23T04:20:48;99301.19;;;-14.72;62.13
55990;BME280;41875;55.806;38.082;2023-02-23T04:23:17;99288.41;;;-14.66;61.52
55990;BME280;41875;55.806;38.082;2023-02-23T04:25:45;99292.69;;;-14.73;62.27
55990;BME280;41875;55.806;38.082;2023-02-23T04:28:14;99291.03;;;-14.72;62.07
55990;BME280;41875;55.806;38.082;2023-02-23T04:30:43;99302.16;;;-15.01;61.64
55990;BME280;41875;55.806;38.082;2023-02-23T04:33:12;99291.88;;;-14.75;62.20
55990;BME280;41875;55.806;38.082;2023-02-23T04:35:42;99305.50;;;-14.96;61.93
55990;BME280;41875;55.806;38.082;2023-02-23T04:38:10;99285.06;;;-14.69;61.37
55990;BME280;41875;55.806;38.082;2023-02-23T04:40:39;99298.56;;;-14.60;61.21
55990;BME280;41875;55.806;38.082;2023-02-23T04:43:09;99307.16;;;-14.75;61.87
55990;BME280;41875;55.806;38.082;2023-02-23T04:45:39;99312.00;;;-14.31;60.95
55990;BME280;41875;55.806;38.082;2023-02-23T04:48:08;99309.66;;;-14.72;61.45
55990;BME280;41875;55.806;38.082;2023-02-23T04:50:36;99316.44;;;-14.67;61.97
55990;BME280;41875;55.806;38.082;2023-02-23T04:53:07;99315.63;;;-14.79;61.66
55990;BME280;41875;55.806;38.082;2023-02-23T04:55:35;99313.81;;;-14.60;60.91
55990;BME280;41875;55.806;38.082;2023-02-23T04:58:03;99304.56;;;-14.72;61.48
55990;BME280;41875;55.806;38.082;2023-02-23T05:00:32;99316.31;;;-14.46;61.04
55990;BME280;41875;55.806;38.082;2023-02-23T05:03:00;99317.31;;;-14.76;61.27
55990;BME280;41875;55.806;38.082;2023-02-23T05:05:30;99311.94;;;-14.28;60.70
55990;BME280;41875;55.806;38.082;2023-02-23T05:07:58;99317.88;;;-14.26;60.67
55990;BME280;41875;55.806;38.082;2023-02-23T05:10:28;99298.50;;;-14.46;61.51
55990;BME280;41875;55.806;38.082;2023-02-23T05:12:57;99333.97;;;-14.15;60.15
55990;BME280;41875;55.806;38.082;2023-02-23T05:15:27;99323.69;;;-14.04;60.16
55990;BME280;41875;55.806;38.082;2023-02-23T05:17:56;99326.44;;;-14.43;61.52
55990;BME280;41875;55.806;38.082;2023-02-23T05:20:24;99320.34;;;-14.11;59.80
55990;BME280;41875;55.806;38.082;2023-02-23T05:22:52;99324.47;;;-13.91;59.37
55990;BME280;41875;55.806;38.082;2023-02-23T05:25:21;99322.66;;;-13.80;58.99
55990;BME280;41875;55.806;38.082;2023-02-23T05:27:51;99328.88;;;-14.15;59.64
55990;BME280;41875;55.806;38.082;2023-02-23T05:30:19;99319.34;;;-13.88;60.00
55990;BME280;41875;55.806;38.082;2023-02-23T05:32:48;99324.63;;;-14.17;60.87
55990;BME280;41875;55.806;38.082;2023-02-23T05:35:17;99330.56;;;-14.17;60.12
55990;BME280;41875;55.806;38.082;2023-02-23T05:37:45;99322.16;;;-14.30;61.01
55990;BME280;41875;55.806;38.082;2023-02-23T05:40:14;99330.59;;;-14.20;60.97
55990;BME280;41875;55.806;38.082;2023-02-23T05:42:42;99319.63;;;-14.36;61.58
55990;BME280;41875;55.806;38.082;2023-02-23T05:45:12;99334.81;;;-14.16;60.78
55990;BME280;41875;55.806;38.082;2023-02-23T05:47:41;99344.19;;;-14.26;61.03
55990;BME280;41875;55.806;38.082;2023-02-23T05:50:10;99334.84;;;-14.22;61.41
55990;BME280;41875;55.806;38.082;2023-02-23T05:52:39;99331.28;;;-13.98;60.30
55990;BME280;41875;55.806;38.082;2023-02-23T05:55:09;99336.56;;;-14.32;61.02
55990;BME280;41875;55.806;38.082;2023-02-23T05:57:39;99337.31;;;-14.13;60.41
55990;BME280;41875;55.806;38.082;2023-02-23T06:00:12;99353.69;;;-14.60;61.41
55990;BME280;41875;55.806;38.082;2023-02-23T06:02:40;99333.06;;;-14.14;61.23
55990;BME280;41875;55.806;38.082;2023-02-23T06:05:12;99333.19;;;-14.29;61.40
55990;BME280;41875;55.806;38.082;2023-02-23T06:07:47;99338.13;;;-14.06;59.97
55990;BME280;41875;55.806;38.082;2023-02-23T06:10:15;99355.19;;;-14.25;59.91
55990;BME280;41875;55.806;38.082;2023-02-23T06:12:44;99328.81;;;-14.07;60.45
55990;BME280;41875;55.806;38.082;2023-02-23T06:15:14;99327.53;;;-13.49;59.08
55990;BME280;41875;55.806;38.082;2023-02-23T06:17:43;99324.28;;;-13.65;59.28
55990;BME280;41875;55.806;38.082;2023-02-23T06:20:12;99328.31;;;-13.40;58.62
55990;BME280;41875;55.806;38.082;2023-02-23T06:22:40;99338.34;;;-13.29;58.03
55990;BME280;41875;55.806;38.082;2023-02-23T06:25:09;99341.22;;;-12.76;57.15
55990;BME280;41875;55.806;38.082;2023-02-23T06:27:40;99336.69;;;-13.32;58.44
55990;BME280;41875;55.806;38.082;2023-02-23T06:30:11;99352.84;;;-13.33;59.06
55990;BME280;41875;55.806;38.082;2023-02-23T06:32:41;99353.56;;;-13.17;58.14
55990;BME280;41875;55.806;38.082;2023-02-23T06:35:14;99331.97;;;-12.85;57.89
55990;BME280;41875;55.806;38.082;2023-02-23T06:37:42;99359.50;;;-13.18;58.32
55990;BME280;41875;55.806;38.082;2023-02-23T06:40:11;99352.59;;;-13.04;58.14
55990;BME280;41875;55.806;38.082;2023-02-23T06:42:39;99353.31;;;-12.92;58.11
55990;BME280;41875;55.806;38.082;2023-02-23T06:45:09;99355.75;;;-12.81;58.14
55990;BME280;41875;55.806;38.082;2023-02-23T06:47:40;99354.88;;;-12.79;58.15
55990;BME280;41875;55.806;38.082;2023-02-23T06:50:10;99357.69;;;-13.07;59.08
55990;BME280;41875;55.806;38.082;2023-02-23T06:52:39;99365.88;;;-12.75;57.65
55990;BME280;41875;55.806;38.082;2023-02-23T06:55:08;99355.84;;;-12.92;58.55
55990;BME280;41875;55.806;38.082;2023-02-23T06:57:38;99378.66;;;-12.06;56.55
55990;BME280;41875;55.806;38.082;2023-02-23T07:00:08;99376.31;;;-12.20;55.99
55990;BME280;41875;55.806;38.082;2023-02-23T07:02:37;99387.66;;;-11.81;55.91
55990;BME280;41875;55.806;38.082;2023-02-23T07:05:08;99385.41;;;-12.01;56.29
55990;BME280;41875;55.806;38.082;2023-02-23T07:07:37;99388.00;;;-12.04;55.71
55990;BME280;41875;55.806;38.082;2023-02-23T07:10:06;99389.19;;;-11.69;55.75
55990;BME280;41875;55.806;38.082;2023-02-23T07:12:35;99384.66;;;-11.50;54.76
55990;BME280;41875;55.806;38.082;2023-02-23T07:15:04;99390.81;;;-11.10;54.06
55990;BME280;41875;55.806;38.082;2023-02-23T07:17:32;99397.06;;;-11.84;55.95
55990;BME280;41875;55.806;38.082;2023-02-23T07:20:01;99385.09;;;-11.24;54.84
55990;BME280;41875;55.806;38.082;2023-02-23T07:22:31;99383.66;;;-11.99;56.95
55990;BME280;41875;55.806;38.082;2023-02-23T07:25:00;99383.13;;;-11.63;56.54
55990;BME280;41875;55.806;38.082;2023-02-23T07:27:30;99395.78;;;-11.55;56.10
55990;BME280;41875;55.806;38.082;2023-02-23T07:29:58;99398.44;;;-11.60;56.47
55990;BME280;41875;55.806;38.082;2023-02-23T07:32:29;99404.31;;;-11.56;56.74
55990;BME280;41875;55.806;38.082;2023-02-23T07:34:57;99406.38;;;-11.21;55.72
55990;BME280;41875;55.806;38.082;2023-02-23T07:37:29;99391.97;;;-10.76;54.74
55990;BME280;41875;55.806;38.082;2023-02-23T07:39:59;99403.22;;;-10.41;53.60
55990;BME280;41875;55.806;38.082;2023-02-23T07:42:29;99402.44;;;-10.90;55.15
55990;BME280;41875;55.806;38.082;2023-02-23T07:44:57;99412.31;;;-10.26;53.73
55990;BME280;41875;55.806;38.082;2023-02-23T07:47:26;99407.75;;;-10.12;53.36
55990;BME280;41875;55.806;38.082;2023-02-23T07:49:57;99419.16;;;-9.84;52.93
55990;BME280;41875;55.806;38.082;2023-02-23T07:52:26;99415.03;;;-10.79;54.99
55990;BME280;41875;55.806;38.082;2023-02-23T07:54:55;99417.72;;;-10.87;55.55
55990;BME280;41875;55.806;38.082;2023-02-23T07:57:25;99415.34;;;-10.51;55.29
55990;BME280;41875;55.806;38.082;2023-02-23T07:59:53;99413.31;;;-9.91;53.80
55990;BME280;41875;55.806;38.082;2023-02-23T08:02:22;99423.69;;;-10.39;54.64
55990;BME280;41875;55.806;38.082;2023-02-23T08:04:50;99419.78;;;-10.59;55.39
55990;BME280;41875;55.806;38.082;2023-02-23T08:07:21;99421.34;;;-10.08;54.24
55990;BME280;41875;55.806;38.082;2023-02-23T08:09:51;99417.63;;;-9.93;54.25
55990;BME280;41875;55.806;38.082;2023-02-23T08:12:20;99416.44;;;-9.78;53.58
55990;BME280;41875;55.806;38.082;2023-02-23T08:14:50;99420.56;;;-9.71;53.31
55990;BME280;41875;55.806;38.082;2023-02-23T08:17:19;99403.59;;;-9.76;54.01
55990;BME280;41875;55.806;38.082;2023-02-23T08:19:48;99410.50;;;-9.80;54.26
55990;BME280;41875;55.806;38.082;2023-02-23T08:22:16;99404.47;;;-9.40;53.57
55990;BME280;41875;55.806;38.082;2023-02-23T08:24:45;99409.59;;;-9.77;54.31
55990;BME280;41875;55.806;38.082;2023-02-23T08:27:14;99405.06;;;-9.28;53.01
55990;BME280;41875;55.806;38.082;2023-02-23T08:29:42;99414.56;;;-9.70;54.20
55990;BME280;41875;55.806;38.082;2023-02-23T08:32:12;99401.63;;;-9.27;53.33
55990;BME280;41875;55.806;38.082;2023-02-23T08:34:42;99412.81;;;-8.95;52.64
55990;BME280;41875;55.806;38.082;2023-02-23T08:37:10;99385.56;;;-8.66;51.76
55990;BME280;41875;55.806;38.082;2023-02-23T08:39:39;99413.13;;;-9.08;52.93
55990;BME280;41875;55.806;38.082;2023-02-23T08:42:09;99405.19;;;-9.33;53.35
55990;BME280;41875;55.806;38.082;2023-02-23T08:44:38;99404.06;;;-8.86;53.02
55990;BME280;41875;55.806;38.082;2023-02-23T08:47:06;99409.25;;;-8.56;52.21
55990;BME280;41875;55.806;38.082;2023-02-23T08:49:36;99415.19;;;-8.88;52.59
55990;BME280;41875;55.806;38.082;2023-02-23T08:52:04;99423.03;;;-9.68;54.54
55990;BME280;41875;55.806;38.082;2023-02-23T08:54:38;99410.94;;;-8.89;52.85
55990;BME280;41875;55.806;38.082;2023-02-23T08:57:06;99414.13;;;-8.79;52.88
55990;BME280;41875;55.806;38.082;2023-02-23T08:59:38;99413.53;;;-8.90;52.95
55990;BME280;41875;55.806;38.082;2023-02-23T09:02:11;99429.63;;;-9.18;54.01
55990;BME280;41875;55.806;38.082;2023-02-23T09:04:42;99412.91;;;-8.98;53.01
55990;BME280;41875;55.806;38.082;2023-02-23T09:07:14;99416.28;;;-8.63;52.79
55990;BME280;41875;55.806;38.082;2023-02-23T09:09:42;99416.38;;;-8.66;53.14
55990;BME280;41875;55.806;38.082;2023-02-23T09:12:11;99402.81;;;-8.42;52.08
55990;BME280;41875;55.806;38.082;2023-02-23T09:14:39;99421.69;;;-8.43;52.44
55990;BME280;41875;55.806;38.082;2023-02-23T09:17:08;99410.53;;;-8.42;52.56
55990;BME280;41875;55.806;38.082;2023-02-23T09:19:37;99413.44;;;-8.22;51.38
55990;BME280;41875;55.806;38.082;2023-02-23T09:22:07;99403.16;;;-8.22;52.22
55990;BME280;41875;55.806;38.082;2023-02-23T09:24:36;99414.56;;;-8.33;51.61
55990;BME280;41875;55.806;38.082;2023-02-23T09:27:04;99415.59;;;-8.38;52.32
55990;BME280;41875;55.806;38.082;2023-02-23T09:29:33;99416.88;;;-8.53;52.16
55990;BME280;41875;55.806;38.082;2023-02-23T09:32:04;99408.72;;;-8.06;51.30
55990;BME280;41875;55.806;38.082;2023-02-23T09:34:32;99403.59;;;-8.08;51.80
55990;BME280;41875;55.806;38.082;2023-02-23T09:37:04;99407.84;;;-8.07;51.07
55990;BME280;41875;55.806;38.082;2023-02-23T09:39:34;99424.28;;;-7.81;50.92
55990;BME280;41875;55.806;38.082;2023-02-23T09:42:11;99434.88;;;-7.93;51.39
55990;BME280;41875;55.806;38.082;2023-02-23T09:44:52;99411.09;;;-8.00;51.29
55990;BME280;41875;55.806;38.082;2023-02-23T09:47:31;99401.59;;;-7.98;50.86
55990;BME280;41875;55.806;38.082;2023-02-23T09:50:15;99414.28;;;-7.35;49.12
55990;BME280;41875;55.806;38.082;2023-02-23T09:52:47;99406.88;;;-7.17;49.62
55990;BME280;41875;55.806;38.082;2023-02-23T09:55:18;99375.84;;;-7.13;48.27
55990;BME280;41875;55.806;38.082;2023-02-23T09:57:48;99410.34;;;-6.66;48.58
55990;BME280;41875;55.806;38.082;2023-02-23T10:00:19;99403.47;;;-6.66;46.92
55990;BME280;41875;55.806;38.082;2023-02-23T10:03:16;99407.69;;;-7.15;49.05
55990;BME280;41875;55.806;38.082;2023-02-23T10:05:51;99399.81;;;-7.38;48.73
55990;BME280;41875;55.806;38.082;2023-02-23T10:08:31;99389.06;;;-6.97;47.28
55990;BME280;41875;55.806;38.082;2023-02-23T10:11:10;99401.81;;;-7.21;49.03
55990;BME280;41875;55.806;38.082;2023-02-23T10:13:50;99401.13;;;-7.26;48.33
55990;BME280;41875;55.806;38.082;2023-02-23T10:16:23;99404.81;;;-6.81;48.60
55990;BME280;41875;55.806;38.082;2023-02-23T10:19:00;99384.47;;;-6.89;48.71
55990;BME280;41875;55.806;38.082;2023-02-23T10:21:35;99384.22;;;-6.32;46.81
55990;BME280;41875;55.806;38.082;2023-02-23T10:24:10;99384.13;;;-6.29;46.30
55990;BME280;41875;55.806;38.082;2023-02-23T10:26:45;99393.53;;;-5.82;46.15
55990;BME280;41875;55.806;38.082;2023-02-23T10:29:20;99375.59;;;-6.80;48.44
55990;BME280;41875;55.806;38.082;2023-02-23T10:31:53;99387.75;;;-6.10;45.88
55990;BME280;41875;55.806;38.082;2023-02-23T10:34:26;99379.84;;;-6.30;46.15
55990;BME280;41875;55.806;38.082;2023-02-23T10:36:58;99373.84;;;-4.97;44.26
55990;BME280;41875;55.806;38.082;2023-02-23T10:39:28;99363.88;;;-5.06;43.87
55990;BME280;41875;55.806;38.082;2023-02-23T10:42:00;99377.84;;;-6.70;47.33
55990;BME280;41875;55.806;38.082;2023-02-23T10:44:30;99369.47;;;-6.76;47.88
55990;BME280;41875;55.806;38.082;2023-02-23T10:47:01;99364.13;;;-6.46;47.60
55990;BME280;41875;55.806;38.082;2023-02-23T10:49:38;99364.84;;;-5.74;45.31
55990;BME280;41875;55.806;38.082;2023-02-23T10:52:11;99357.59;;;-6.08;46.16
55990;BME280;41875;55.806;38.082;2023-02-23T10:54:54;99361.97;;;-5.66;44.79
55990;BME280;41875;55.806;38.082;2023-02-23T10:57:27;99387.53;;;-5.82;45.17
55990;BME280;41875;55.806;38.082;2023-02-23T11:00:05;99379.69;;;-5.79;45.71
55990;BME280;41875;55.806;38.082;2023-02-23T11:02:34;99376.63;;;-5.89;45.32
55990;BME280;41875;55.806;38.082;2023-02-23T11:05:04;99381.44;;;-6.75;46.57
55990;BME280;41875;55.806;38.082;2023-02-23T11:07:33;99381.94;;;-6.16;46.86
55990;BME280;41875;55.806;38.082;2023-02-23T11:10:24;99369.06;;;-5.49;44.15
55990;BME280;41875;55.806;38.082;2023-02-23T11:12:54;99376.03;;;-5.73;45.13
55990;BME280;41875;55.806;38.082;2023-02-23T11:15:28;99379.47;;;-5.97;45.21
55990;BME280;41875;55.806;38.082;2023-02-23T11:18:19;99376.44;;;-5.84;44.24
55990;BME280;41875;55.806;38.082;2023-02-23T11:20:49;99359.31;;;-6.31;43.55
55990;BME280;41875;55.806;38.082;2023-02-23T11:23:22;99355.28;;;-6.64;44.47
55990;BME280;41875;55.806;38.082;2023-02-23T11:25:57;99370.53;;;-6.57;44.95
55990;BME280;41875;55.806;38.082;2023-02-23T11:28:32;99379.97;;;-6.56;45.38
55990;BME280;41875;55.806;38.082;2023-02-23T11:31:08;99365.91;;;-6.24;43.20
55990;BME280;41875;55.806;38.082;2023-02-23T11:33:41;99366.72;;;-6.47;43.89
55990;BME280;41875;55.806;38.082;2023-02-23T11:36:16;99374.56;;;-6.50;44.47
55990;BME280;41875;55.806;38.082;2023-02-23T11:38:45;99384.56;;;-6.41;42.87
55990;BME280;41875;55.806;38.082;2023-02-23T11:41:21;99368.03;;;-6.12;42.93
55990;BME280;41875;55.806;38.082;2023-02-23T11:43:56;99386.97;;;-6.36;44.96
55990;BME280;41875;55.806;38.082;2023-02-23T11:46:25;99382.88;;;-5.96;43.70
55990;BME280;41875;55.806;38.082;2023-02-23T11:48:57;99368.88;;;-5.89;43.06
55990;BME280;41875;55.806;38.082;2023-02-23T11:51:29;99374.09;;;-5.90;42.10
55990;BME280;41875;55.806;38.082;2023-02-23T11:54:01;99376.53;;;-5.87;43.48
55990;BME280;41875;55.806;38.082;2023-02-23T11:56:33;99374.53;;;-6.01;42.75
55990;BME280;41875;55.806;38.082;2023-02-23T11:59:16;99366.22;;;-5.87;43.68
55990;BME280;41875;55.806;38.082;2023-02-23T12:01:49;99369.16;;;-5.97;44.52
55990;BME280;41875;55.806;38.082;2023-02-23T12:04:29;99367.31;;;-5.93;43.89
55990;BME280;41875;55.806;38.082;2023-02-23T12:07:24;99369.25;;;-5.54;44.22
55990;BME280;41875;55.806;38.082;2023-02-23T12:09:59;99371.38;;;-5.21;43.14
55990;BME280;41875;55.806;38.082;2023-02-23T12:12:30;99371.50;;;-5.03;42.57
55990;BME280;41875;55.806;38.082;2023-02-23T12:15:08;99372.34;;;-4.82;43.09
55990;BME280;41875;55.806;38.082;2023-02-23T12:17:44;99369.88;;;-4.44;41.46
55990;BME280;41875;55.806;38.082;2023-02-23T12:20:19;99356.47;;;-4.93;42.59
55990;BME280;41875;55.806;38.082;2023-02-23T12:22:52;99363.31;;;-5.78;45.60
55990;BME280;41875;55.806;38.082;2023-02-23T12:25:25;99350.75;;;-5.87;44.99
55990;BME280;41875;55.806;38.082;2023-02-23T12:28:00;99363.81;;;-5.25;44.91
55990;BME280;41875;55.806;38.082;2023-02-23T12:30:49;99374.94;;;-5.90;45.32
55990;BME280;41875;55.806;38.082;2023-02-23T12:33:23;99362.75;;;-5.86;46.23
55990;BME280;41875;55.806;38.082;2023-02-23T12:36:03;99374.28;;;-5.51;45.54
55990;BME280;41875;55.806;38.082;2023-02-23T12:38:45;99374.53;;;-5.57;45.61
55990;BME280;41875;55.806;38.082;2023-02-23T12:41:22;99381.78;;;-4.81;44.16
55990;BME280;41875;55.806;38.082;2023-02-23T12:43:55;99371.47;;;-5.44;44.87
55990;BME280;41875;55.806;38.082;2023-02-23T12:46:33;99366.84;;;-5.81;45.00
55990;BME280;41875;55.806;38.082;2023-02-23T12:49:08;99370.50;;;-5.64;45.58
55990;BME280;41875;55.806;38.082;2023-02-23T12:51:43;99378.97;;;-5.60;45.70
55990;BME280;41875;55.806;38.082;2023-02-23T12:54:15;99381.19;;;-5.29;44.38
55990;BME280;41875;55.806;38.082;2023-02-23T12:56:59;99365.78;;;-5.53;44.17
55990;BME280;41875;55.806;38.082;2023-02-23T12:59:55;99373.25;;;-5.24;43.62
55990;BME280;41875;55.806;38.082;2023-02-23T13:02:32;99374.56;;;-5.58;44.26
55990;BME280;41875;55.806;38.082;2023-02-23T13:05:19;99384.69;;;-5.52;45.54
55990;BME280;41875;55.806;38.082;2023-02-23T13:07:58;99387.25;;;-5.30;45.04
55990;BME280;41875;55.806;38.082;2023-02-23T13:10:44;99376.22;;;-5.78;45.04
55990;BME280;41875;55.806;38.082;2023-02-23T13:13:27;99381.38;;;-5.78;44.65
55990;BME280;41875;55.806;38.082;2023-02-23T13:16:06;99390.22;;;-5.61;43.53
55990;BME280;41875;55.806;38.082;2023-02-23T13:18:44;99383.84;;;-5.75;45.06
55990;BME280;41875;55.806;38.082;2023-02-23T13:21:18;99382.28;;;-5.57;45.51
55990;BME280;41875;55.806;38.082;2023-02-23T13:23:57;99375.03;;;-5.26;43.22